Time;durP1;ratioP1;P1;durP2;ratioP2;P2;SDS_P1;SDS_P2;PMS_P1;PMS_P2;Temp;Humidity;BMP_temperature;BMP_pressure;BME280_temperature;BME280_humidity;BME280_pressure;Samples;Min_cycle;Max_cycle;Signal;HPM_P1;HPM_P2
2022/10/01 00:01:56;;;;;;;6.97;3.67;;;;;;;;;;5043805;28;20024;-83
2022/10/01 00:04:22;;;;;;;4.80;2.88;;;;;;;;;;5039944;28;20060;-82
2022/10/01 00:06:48;;;;;;;6.18;2.95;;;;;;;;;;5036396;28;20579;-83
2022/10/01 00:09:14;;;;;;;5.18;2.55;;;5.50;99.90;;;;;;5035043;28;20129;-82
2022/10/01 00:11:40;;;;;;;5.72;2.70;;;;;;;;;;5032461;28;20067;-83
2022/10/01 00:14:07;;;;;;;5.45;3.15;;;;;;;;;;5042627;28;20113;-82
2022/10/01 00:16:33;;;;;;;3.50;2.53;;;5.30;99.90;;;;;;5045472;28;20053;-83
2022/10/01 00:18:59;;;;;;;4.03;2.72;;;;;;;;;;5043767;28;20071;-83
2022/10/01 00:21:30;;;;;;;5.93;2.88;;;;;;;;;;5039261;28;20044;-84
2022/10/01 00:23:57;;;;;;;6.40;3.58;;;;;;;;;;5042962;28;20059;-82
2022/10/01 00:26:26;;;;;;;8.18;3.72;;;;;;;;;;5043581;28;20076;-83
2022/10/01 00:28:54;;;;;;;7.25;2.78;;;5.80;99.90;;;;;;5043046;28;20040;-83
2022/10/01 00:31:20;;;;;;;6.32;3.50;;;;;;;;;;5043187;28;20503;-82
2022/10/01 00:33:47;;;;;;;4.57;2.95;;;;;;;;;;5041377;28;20037;-82
2022/10/01 00:36:13;;;;;;;6.13;3.55;;;;;;;;;;5039028;28;20021;-82
2022/10/01 00:38:39;;;;;;;3.75;2.22;;;;;;;;;;5041866;28;20076;-82
2022/10/01 00:41:05;;;;;;;8.23;3.70;;;;;;;;;;5041219;28;20021;-82
2022/10/01 00:43:33;;;;;;;7.18;3.13;;;;;;;;;;5045080;28;20033;-82
2022/10/01 00:46:08;;;;;;;6.57;3.67;;;5.70;99.90;;;;;;5039799;28;20033;-83
2022/10/01 00:48:37;;;;;;;8.90;3.33;;;;;;;;;;5048584;28;20025;-82
2022/10/01 00:51:05;;;;;;;8.85;4.05;;;;;;;;;;5037450;28;20674;-83
2022/10/01 00:53:31;;;;;;;9.13;3.92;;;;;;;;;;5037404;28;20061;-83
2022/10/01 00:55:58;;;;;;;6.00;3.33;;;;;;;;;;5035831;28;20029;-84
2022/10/01 00:58:24;;;;;;;8.20;4.20;;;;;;;;;;5042381;28;20067;-82
2022/10/01 01:00:51;;;;;;;6.75;3.30;;;;;;;;;;5044381;28;20507;-82
2022/10/01 01:03:17;;;;;;;7.93;4.43;;;;;;;;;;5043466;28;20029;-84
2022/10/01 01:05:45;;;;;;;5.97;4.00;;;;;;;;;;5042480;28;20059;-83
2022/10/01 01:08:10;;;;;;;7.63;3.58;;;;;;;;;;5039123;28;20733;-83
2022/10/01 01:11:00;;;;;;;7.18;3.80;;;4.80;99.90;;;;;;5044770;28;20056;-82
2022/10/01 01:13:29;;;;;;;6.13;3.65;;;;;;;;;;5038219;28;20033;-82
2022/10/01 01:15:55;;;;;;;8.20;4.22;;;;;;;;;;5042861;28;20021;-83
2022/10/01 01:18:33;;;;;;;7.97;3.90;;;;;;;;;;5041060;28;20036;-83
2022/10/01 01:21:07;;;;;;;5.65;2.80;;;;;;;;;;5035822;28;20441;-83
2022/10/01 01:24:02;;;;;;;7.50;3.53;;;4.70;99.90;;;;;;5036589;28;20025;-84
2022/10/01 01:26:30;;;;;;;6.22;3.20;;;;;;;;;;5039658;28;20035;-82
2022/10/01 01:29:05;;;;;;;7.55;3.95;;;5.50;99.90;;;;;;5040819;28;20110;-82
2022/10/01 01:31:34;;;;;;;5.57;3.47;;;;;;;;;;5038855;28;20033;-81
2022/10/01 01:34:03;;;;;;;4.45;3.33;;;;;;;;;;5042783;28;20417;-83
2022/10/01 01:36:35;;;;;;;5.43;3.38;;;4.70;99.90;;;;;;5037796;28;20036;-82
2022/10/01 01:39:04;;;;;;;7.97;3.80;;;5.80;99.90;;;;;;5038953;28;20060;-82
2022/10/01 01:41:33;;;;;;;11.15;4.05;;;;;;;;;;5039782;28;20036;-82
2022/10/01 01:44:01;;;;;;;7.05;3.90;;;5.60;99.90;;;;;;5042128;28;20057;-82
2022/10/01 01:46:32;;;;;;;7.90;3.33;;;;;;;;;;5034388;28;20035;-83
2022/10/01 01:48:58;;;;;;;7.68;3.92;;;;;;;;;;5043310;28;20029;-82
2022/10/01 01:51:42;;;;;;;5.45;3.00;;;4.70;99.90;;;;;;5036397;28;20140;-82
2022/10/01 01:54:08;;;;;;;6.75;3.65;;;;;;;;;;5041363;28;20040;-83
2022/10/01 01:56:34;;;;;;;7.05;3.75;;;;;;;;;;5041306;28;23306;-83
2022/10/01 01:59:00;;;;;;;6.28;3.20;;;;;;;;;;5039953;28;20500;-81
2022/10/01 02:01:40;;;;;;;4.68;3.08;;;4.90;99.90;;;;;;5039265;28;20753;-81
2022/10/01 02:04:08;;;;;;;6.05;3.42;;;;;;;;;;5034898;28;20085;-82
2022/10/01 02:06:45;;;;;;;6.95;3.75;;;;;;;;;;5037170;28;20037;-82
2022/10/01 02:09:14;;;;;;;12.30;4.47;;;;;;;;;;5038389;28;20033;-82
2022/10/01 02:12:06;;;;;;;6.82;3.67;;;5.80;99.90;;;;;;5043292;28;20036;-84
2022/10/01 02:14:35;;;;;;;6.90;4.18;;;4.90;99.90;;;;;;5026872;28;20284;-81
2022/10/01 02:17:15;;;;;;;10.27;5.03;;;5.90;99.90;;;;;;5037393;28;20029;-82
2022/10/01 02:19:56;;;;;;;9.70;4.70;;;;;;;;;;5033369;28;20496;-82
2022/10/01 02:22:25;;;;;;;8.48;4.40;;;;;;;;;;5030426;28;20021;-82
2022/10/01 02:24:56;;;;;;;10.52;4.75;;;4.90;99.90;;;;;;5043264;28;20048;-83
2022/10/01 02:27:28;;;;;;;7.88;4.55;;;;;;;;;;5038441;28;20562;-82
2022/10/01 02:29:57;;;;;;;12.77;4.72;;;;;;;;;;5037343;28;20070;-81
2022/10/01 02:32:23;;;;;;;8.27;4.00;;;;;;;;;;5039215;28;20657;-81
2022/10/01 02:34:49;;;;;;;10.15;4.70;;;;;;;;;;5035901;28;20139;-82
2022/10/01 02:37:19;;;;;;;7.03;4.93;;;5.90;99.90;;;;;;5037614;28;20037;-83
2022/10/01 02:39:46;;;;;;;10.45;5.03;;;6.00;99.90;;;;;;5042333;28;20040;-81
2022/10/01 02:42:14;;;;;;;10.07;5.13;;;5.80;99.90;;;;;;5038132;28;20040;-82
2022/10/01 02:44:44;;;;;;;12.63;5.45;;;;;;;;;;5038330;28;20066;-82
2022/10/01 02:47:16;;;;;;;8.77;4.05;;;;;;;;;;5036721;28;20029;-81
2022/10/01 02:49:42;;;;;;;8.60;4.18;;;;;;;;;;5033450;28;20044;-82
2022/10/01 02:52:30;;;;;;;7.13;3.92;;;6.10;99.90;;;;;;5035168;28;20112;-82
2022/10/01 02:55:12;;;;;;;8.57;3.67;;;;;;;;;;5039518;28;20026;-82
2022/10/01 02:57:38;;;;;;;7.50;4.07;;;;;;;;;;5038972;28;20396;-82
2022/10/01 03:00:15;;;;;;;9.00;5.20;;;;;;;;;;5033395;28;20163;-82
2022/10/01 03:02:41;;;;;;;8.57;4.70;;;;;;;;;;5037975;28;20025;-83
2022/10/01 03:05:08;;;;;;;9.25;4.63;;;;;;;;;;5041786;28;20089;-82
2022/10/01 03:07:35;;;;;;;9.88;5.50;;;;;;;;;;5036823;28;20646;-83
2022/10/01 03:10:02;;;;;;;7.30;4.30;;;6.00;99.90;;;;;;5039707;28;20032;-83
2022/10/01 03:12:28;;;;;;;6.80;3.80;;;;;;;;;;5048927;28;20093;-79
2022/10/01 03:14:53;;;;;;;7.75;3.80;;;5.80;99.90;;;;;;5055513;28;20018;-81
2022/10/01 03:17:19;;;;;;;8.55;3.35;;;;;;;;;;5053292;28;20084;-83
2022/10/01 03:19:45;;;;;;;5.47;2.83;;;;;;;;;;5050395;28;20123;-82
2022/10/01 03:22:12;;;;;;;7.65;4.40;;;;;;;;;;5042820;28;20064;-82
2022/10/01 03:24:38;;;;;;;6.72;4.10;;;;;;;;;;5044051;28;20021;-83
2022/10/01 03:27:04;;;;;;;7.90;4.15;;;;;;;;;;5034194;28;20158;-81
2022/10/01 03:29:30;;;;;;;7.95;4.25;;;;;;;;;;5036463;28;20041;-81
2022/10/01 03:31:56;;;;;;;7.95;4.28;;;;;;;;;;5042154;28;20029;-83
2022/10/01 03:34:22;;;;;;;6.72;3.95;;;;;;;;;;5041708;28;20040;-82
2022/10/01 03:36:50;;;;;;;9.65;3.85;;;;;;;;;;5038231;28;20400;-83
2022/10/01 03:39:17;;;;;;;7.63;3.38;;;;;;;;;;5043240;28;20052;-82
2022/10/01 03:41:43;;;;;;;7.60;4.00;;;;;;;;;;5037104;28;20688;-83
2022/10/01 03:44:09;;;;;;;7.95;4.05;;;;;;;;;;5036188;28;20064;-81
2022/10/01 03:46:35;;;;;;;16.15;4.70;;;;;;;;;;5040017;28;20044;-81
2022/10/01 03:49:01;;;;;;;7.55;4.20;;;;;;;;;;5041516;28;20051;-83
2022/10/01 03:51:28;;;;;;;8.18;3.85;;;;;;;;;;5037750;28;20075;-82
2022/10/01 03:53:54;;;;;;;11.70;3.60;;;;;;;;;;5034488;28;20040;-82
2022/10/01 03:56:20;;;;;;;9.38;4.18;;;;;;;;;;5042959;28;20176;-83
2022/10/01 03:58:46;;;;;;;7.70;4.18;;;;;;;;;;5039757;28;20075;-81
2022/10/01 04:01:12;;;;;;;8.40;4.88;;;;;;;;;;5043256;28;20032;-82
2022/10/01 04:03:39;;;;;;;7.13;4.00;;;;;;;;;;5037096;28;20021;-82
2022/10/01 04:06:05;;;;;;;8.52;4.03;;;;;;;;;;5041441;28;20365;-82
2022/10/01 04:08:31;;;;;;;5.35;3.38;;;;;;;;;;5045451;28;20116;-82
2022/10/01 04:10:57;;;;;;;9.30;3.40;;;;;;;;;;5045942;28;20029;-81
2022/10/01 04:13:23;;;;;;;7.40;3.63;;;;;;;;;;5046839;28;20071;-83
2022/10/01 04:15:49;;;;;;;6.18;3.80;;;;;;;;;;5043088;28;20029;-82
2022/10/01 04:18:18;;;;;;;6.93;4.00;;;;;;;;;;5041974;28;20021;-81
2022/10/01 04:20:44;;;;;;;7.28;3.33;;;;;;;;;;5036364;28;20025;-81
2022/10/01 04:23:10;;;;;;;11.98;4.50;;;;;;;;;;5040155;28;20037;-82
2022/10/01 04:25:36;;;;;;;5.18;2.85;;;;;;;;;;5042726;28;20032;-82
2022/10/01 04:28:03;;;;;;;8.32;3.47;;;;;;;;;;5049272;28;20025;-82
2022/10/01 04:30:31;;;;;;;4.57;2.47;;;;;;;;;;5037954;28;20028;-82
2022/10/01 04:32:57;;;;;;;6.63;3.80;;;;;;;;;;5042232;28;20045;-83
2022/10/01 04:35:23;;;;;;;4.97;2.85;;;;;;;;;;5049047;28;20032;-83
2022/10/01 04:38:02;;;;;;;5.43;2.60;;;6.70;99.90;;;;;;5041987;28;20036;-81
2022/10/01 04:40:29;;;;;;;6.00;3.47;;;6.70;99.90;;;;;;5041868;28;20056;-82
2022/10/01 04:42:55;;;;;;;6.63;2.63;;;;;;;;;;5034396;28;20029;-81
2022/10/01 04:45:21;;;;;;;6.35;3.40;;;;;;;;;;5038578;28;20021;-83
2022/10/01 04:47:47;;;;;;;5.00;3.10;;;6.70;99.90;;;;;;5041010;28;20025;-83
2022/10/01 04:50:14;;;;;;;6.00;2.85;;;;;;;;;;5036627;28;20053;-83
2022/10/01 04:52:40;;;;;;;5.13;2.08;;;;;;;;;;5031940;28;20048;-83
2022/10/01 04:55:06;;;;;;;4.78;2.67;;;;;;;;;;5036855;28;20406;-82
2022/10/01 04:57:33;;;;;;;3.90;3.05;;;;;;;;;;5039109;28;20022;-82
2022/10/01 05:00:00;;;;;;;7.22;2.20;;;;;;;;;;5045139;28;20040;-82
2022/10/01 05:02:27;;;;;;;5.25;2.20;;;;;;;;;;5042733;28;20021;-80
2022/10/01 05:04:53;;;;;;;3.03;1.95;;;;;;;;;;5048099;28;20509;-82
2022/10/01 05:07:19;;;;;;;3.58;2.20;;;;;;;;;;5047781;28;20112;-83
2022/10/01 05:09:45;;;;;;;3.75;1.67;;;;;;;;;;5048966;28;20524;-82
2022/10/01 05:12:11;;;;;;;3.92;1.80;;;;;;;;;;5042097;28;20060;-83
2022/10/01 05:14:37;;;;;;;3.28;2.08;;;;;;;;;;5049039;28;20442;-83
2022/10/01 05:17:03;;;;;;;5.43;2.42;;;;;;;;;;5045223;28;20028;-82
2022/10/01 05:19:30;;;;;;;15.30;2.50;;;;;;;;;;5049222;28;20037;-83
2022/10/01 05:21:56;;;;;;;7.75;3.58;;;;;;;;;;5046891;28;20021;-82
2022/10/01 05:24:22;;;;;;;3.28;1.60;;;7.60;99.90;;;;;;5044556;28;20076;-82
2022/10/01 05:26:48;;;;;;;5.72;2.45;;;7.60;99.90;;;;;;5047626;28;20155;-82
2022/10/01 05:29:14;;;;;;;4.53;1.92;;;;;;;;;;5048214;28;20508;-82
2022/10/01 05:31:43;;;;;;;7.72;4.07;;;;;;;;;;5046994;28;20022;-83
2022/10/01 05:34:09;;;;;;;3.35;1.70;;;8.50;99.90;;;;;;5043117;28;20041;-82
2022/10/01 05:36:35;;;;;;;6.55;1.83;;;;;;;;;;5045731;28;20025;-82
2022/10/01 05:39:01;;;;;;;4.28;2.42;;;8.40;99.90;;;;;;5045814;28;20045;-84
2022/10/01 05:41:27;;;;;;;3.80;2.22;;;;;;;;;;5046870;28;20500;-82
2022/10/01 05:43:53;;;;;;;5.03;2.50;;;;;;;;;;5047514;28;20405;-82
2022/10/01 05:46:19;;;;;;;4.85;2.72;;;;;;;;;;5044135;28;20116;-82
2022/10/01 05:48:48;;;;;;;6.57;2.63;;;;;;;;;;5044065;28;20025;-82
2022/10/01 05:51:15;;;;;;;3.22;1.83;;;;;;;;;;5049820;28;20025;-81
2022/10/01 05:53:40;;;;;;;4.28;1.92;;;;;;;;;;5046440;28;20037;-82
2022/10/01 05:56:07;;;;;;;2.60;1.13;;;;;;;;;;5044428;28;20056;-84
2022/10/01 05:58:33;;;;;;;5.22;1.83;;;;;;;;;;5039605;28;20033;-85
2022/10/01 06:00:59;;;;;;;3.47;1.52;;;;;;;;;;5041981;28;20029;-82
2022/10/01 06:03:28;;;;;;;2.78;1.48;;;;;;;;;;5044211;28;20029;-83
2022/10/01 06:05:54;;;;;;;1.98;1.33;;;;;;;;;;5048054;28;20029;-80
2022/10/01 06:08:20;;;;;;;7.35;1.55;;;8.90;99.90;;;;;;5045558;28;20035;-81
2022/10/01 06:10:47;;;;;;;6.95;1.75;;;;;;;;;;5041172;28;20029;-83
2022/10/01 06:13:19;;;;;;;2.20;0.90;;;;;;;;;;5042415;28;20036;-82
2022/10/01 06:15:45;;;;;;;2.60;0.93;;;9.90;99.90;;;;;;5042853;28;20412;-84
2022/10/01 06:18:13;;;;;;;2.50;1.48;;;;;;;;;;5039605;28;20066;-82
2022/10/01 06:20:39;;;;;;;15.68;6.18;;;;;;;;;;5041748;28;20472;-81
2022/10/01 06:23:10;;;;;;;26.23;9.43;;;;;;;;;;5036598;28;20044;-82
2022/10/01 06:25:37;;;;;;;6.15;2.90;;;;;;;;;;5044645;28;20542;-80
2022/10/01 06:28:04;;;;;;;5.43;2.55;;;;;;;;;;5041926;28;20048;-82
2022/10/01 06:30:31;;;;;;;3.72;1.40;;;;;;;;;;5039856;28;20067;-81
2022/10/01 06:33:03;;;;;;;4.97;2.45;;;;;;;;;;5037109;28;20622;-81
2022/10/01 06:35:30;;;;;;;11.63;5.83;;;8.80;99.90;;;;;;5034385;28;20454;-82
2022/10/01 06:37:56;;;;;;;36.55;14.00;;;;;;;;;;5031755;28;20041;-83
2022/10/01 06:40:22;;;;;;;28.50;10.57;;;;;;;;;;5039265;28;20111;-82
2022/10/01 06:42:48;;;;;;;10.35;4.75;;;;;;;;;;5039572;28;20037;-83
2022/10/01 06:45:15;;;;;;;1.73;1.08;;;;;;;;;;5029324;28;20147;-82
2022/10/01 06:47:41;;;;;;;3.78;1.00;;;;;;;;;;5033582;28;20055;-82
2022/10/01 06:50:07;;;;;;;2.15;1.33;;;;;;;;;;5040360;28;20447;-84
2022/10/01 06:52:48;;;;;;;2.45;1.38;;;;;;;;;;5033665;28;20045;-84
2022/10/01 06:55:25;;;;;;;4.50;2.28;;;;;;;;;;5032951;28;20423;-82
2022/10/01 06:57:55;;;;;;;1.42;1.02;;;9.30;99.90;;;;;;5035615;28;20053;-82
2022/10/01 07:00:22;;;;;;;2.72;1.33;;;;;;;;;;5035693;28;20025;-83
2022/10/01 07:02:47;;;;;;;2.05;1.05;;;;;;;;;;5037678;28;20029;-82
2022/10/01 07:05:14;;;;;;;1.70;1.23;;;;;;;;;;5041511;28;20076;-80
2022/10/01 07:07:40;;;;;;;5.32;0.80;;;;;;;;;;5038446;28;20079;-81
2022/10/01 07:10:08;;;;;;;1.52;0.90;;;;;;;;;;5033382;28;20112;-81
2022/10/01 07:12:35;;;;;;;1.00;0.90;;;;;;;;;;5032592;28;20071;-83
2022/10/01 07:15:01;;;;;;;1.60;0.77;;;;;;;;;;5039255;28;20147;-82
2022/10/01 07:17:27;;;;;;;2.85;0.85;;;;;;;;;;5043330;28;20110;-82
2022/10/01 07:19:53;;;;;;;1.08;0.80;;;;;;;;;;5040906;28;20032;-82
2022/10/01 07:22:19;;;;;;;2.00;1.35;;;;;;;;;;5033807;28;20044;-83
2022/10/01 07:24:46;;;;;;;1.17;0.77;;;;;;;;;;5045281;28;20128;-82
2022/10/01 07:27:12;;;;;;;1.75;0.73;;;;;;;;;;5046992;28;20036;-82
2022/10/01 07:29:39;;;;;;;1.42;1.17;;;;;;;;;;5034844;28;20048;-82
2022/10/01 07:32:07;;;;;;;1.20;0.40;;;;;;;;;;5028137;28;20021;-84
2022/10/01 07:34:34;;;;;;;1.48;1.25;;;;;;;;;;5032435;28;20065;-81
2022/10/01 07:37:00;;;;;;;1.65;1.17;;;;;;;;;;5037767;28;20024;-80
2022/10/01 07:39:26;;;;;;;1.98;0.90;;;;;;;;;;5030410;28;20018;-83
2022/10/01 07:41:52;;;;;;;1.20;0.60;;;;;;;;;;5036613;28;20076;-84
2022/10/01 07:44:18;;;;;;;1.30;0.82;;;;;;;;;;5034641;28;20032;-83
2022/10/01 07:46:45;;;;;;;1.48;0.50;;;;;;;;;;5034044;28;20079;-80
2022/10/01 07:49:11;;;;;;;1.45;0.80;;;;;;;;;;5037465;28;20033;-81
2022/10/01 07:51:37;;;;;;;3.15;0.80;;;;;;;;;;5038565;28;20459;-80
2022/10/01 07:54:03;;;;;;;1.00;0.70;;;10.40;99.90;;;;;;5041051;28;20125;-81
2022/10/01 07:56:29;;;;;;;2.60;0.90;;;;;;;;;;5041464;28;20107;-80
2022/10/01 07:58:56;;;;;;;1.80;1.08;;;10.20;99.90;;;;;;5040036;28;20067;-82
2022/10/01 08:01:23;;;;;;;1.25;0.55;;;;;;;;;;5035363;28;20029;-82
2022/10/01 08:03:49;;;;;;;1.75;0.90;;;;;;;;;;5041909;28;20029;-83
2022/10/01 08:06:16;;;;;;;0.95;0.50;;;;;;;;;;5031461;28;20079;-83
2022/10/01 08:08:42;;;;;;;1.05;0.60;;;9.20;99.90;;;;;;5034871;28;20031;-83
2022/10/01 08:11:09;;;;;;;1.08;0.68;;;;;;;;;;5038081;28;20025;-81
2022/10/01 08:13:35;;;;;;;1.23;0.70;;;;;;;;;;5034411;28;20646;-82
2022/10/01 08:16:03;;;;;;;2.67;0.82;;;10.30;99.90;;;;;;5036600;28;20022;-82
2022/10/01 08:18:28;;;;;;;0.63;0.45;;;10.00;99.90;;;;;;5035261;28;20039;-83
2022/10/01 08:20:54;;;;;;;1.63;0.80;;;;;;;;;;5033987;28;20029;-82
2022/10/01 08:23:20;;;;;;;1.23;0.70;;;;;;;;;;5031063;28;20041;-83
2022/10/01 08:25:47;;;;;;;3.30;0.70;;;;;;;;;;5036412;28;21018;-81
2022/10/01 08:28:14;;;;;;;1.17;0.70;;;;;;;;;;5033484;28;20033;-85
2022/10/01 08:30:41;;;;;;;1.48;0.60;;;10.40;99.90;;;;;;5029771;28;20059;-82
2022/10/01 08:33:09;;;;;;;1.58;0.55;;;;;;;;;;5038727;28;20047;-84
2022/10/01 08:35:37;;;;;;;0.90;0.60;;;;;;;;;;5038801;28;21387;-83
2022/10/01 08:38:05;;;;;;;0.80;0.50;;;;;;;;;;5027835;28;20555;-81
2022/10/01 08:40:39;;;;;;;1.02;0.45;;;10.00;99.90;;;;;;5036923;28;20037;-85
2022/10/01 08:43:27;;;;;;;1.52;0.60;;;10.30;99.90;;;;;;5042599;28;20057;-82
2022/10/01 08:45:58;;;;;;;0.95;0.43;;;;;;;;;;5034843;28;20049;-84
2022/10/01 08:48:35;;;;;;;1.20;0.80;;;;;;;;;;5034228;28;20043;-81
2022/10/01 08:51:23;;;;;;;1.60;0.88;;;10.50;99.90;;;;;;5035220;28;20102;-81
2022/10/01 08:53:56;;;;;;;1.75;0.82;;;10.50;99.90;;;;;;5019780;28;20044;-81
2022/10/01 08:56:24;;;;;;;1.92;0.80;;;;;;;;;;5035331;28;20500;-79
2022/10/01 08:58:57;;;;;;;1.42;1.00;;;10.20;99.90;;;;;;5046276;28;20094;-81
2022/10/01 09:01:24;;;;;;;2.38;0.65;;;;;;;;;;5042493;28;20025;-83
2022/10/01 09:03:50;;;;;;;1.48;0.50;;;;;;;;;;5036891;28;20046;-82
2022/10/01 09:06:20;;;;;;;2.20;0.60;;;;;;;;;;5037104;28;20120;-86
2022/10/01 09:09:11;;;;;;;1.85;0.57;;;9.70;99.90;;;;;;5037227;28;20048;-84
2022/10/01 09:11:37;;;;;;;3.45;0.55;;;;;;;;;;5039959;28;20586;-81
2022/10/01 09:14:17;;;;;;;2.95;0.45;;;10.50;99.90;;;;;;5035197;28;20041;-82
2022/10/01 09:16:49;;;;;;;1.77;0.80;;;;;;;;;;5040933;28;20065;-82
2022/10/01 09:19:21;;;;;;;1.63;0.60;;;10.30;99.90;;;;;;5038701;28;20028;-82
2022/10/01 09:21:51;;;;;;;5.18;0.88;;;;;;;;;;5041233;28;22969;-81
2022/10/01 09:24:39;;;;;;;1.38;0.40;;;9.90;99.90;;;;;;5048060;28;20414;-82
2022/10/01 09:27:10;;;;;;;1.02;0.52;;;;;;;;;;5047631;28;20096;-82
2022/10/01 09:29:43;;;;;;;1.25;0.65;;;10.80;99.90;;;;;;5050648;28;20075;-82
2022/10/01 09:32:13;;;;;;;1.55;0.60;;;;;;;;;;5050482;28;20026;-83
2022/10/01 09:34:42;;;;;;;1.73;0.80;;;10.60;99.90;;;;;;5051593;28;20665;-81
2022/10/01 09:37:20;;;;;;;1.00;0.45;;;11.20;99.90;;;;;;5044728;28;20021;-81
2022/10/01 09:39:53;;;;;;;2.33;0.82;;;;;;;;;;5046976;28;20027;-81
2022/10/01 09:42:23;;;;;;;0.82;0.43;;;10.80;99.90;;;;;;5042534;28;20028;-81
2022/10/01 09:44:49;;;;;;;0.82;0.60;;;;;;;;;;5038868;28;20079;-82
2022/10/01 09:47:18;;;;;;;1.02;0.63;;;10.80;99.90;;;;;;5048368;28;20041;-80
2022/10/01 09:49:45;;;;;;;0.77;0.50;;;;;;;;;;5042375;28;20029;-85
2022/10/01 09:52:38;;;;;;;1.20;0.47;;;10.40;99.90;;;;;;5035059;28;20098;-81
2022/10/01 09:55:18;;;;;;;7.22;0.68;;;;;;;;;;5042951;28;20060;-80
2022/10/01 09:57:51;;;;;;;1.10;0.45;;;10.80;99.90;;;;;;5046154;28;20048;-80
2022/10/01 10:00:19;;;;;;;0.40;0.32;;;10.80;99.90;;;;;;5043487;28;20060;-80
2022/10/01 10:02:53;;;;;;;1.75;0.57;;;;;;;;;;5042290;28;20029;-81
2022/10/01 10:05:21;;;;;;;1.05;0.88;;;11.10;99.90;;;;;;5040096;28;20044;-81
2022/10/01 10:08:19;;;;;;;1.42;0.80;;;11.10;99.90;;;;;;5041236;28;20504;-80
2022/10/01 10:10:59;;;;;;;1.65;0.85;;;11.50;99.90;;;;;;5042958;28;20029;-82
2022/10/01 10:13:37;;;;;;;0.95;0.50;;;;;;;;;;5040661;28;20041;-81
2022/10/01 10:16:30;;;;;;;0.77;0.60;;;;;;;;;;5039073;28;20079;-81
2022/10/01 10:19:26;;;;;;;2.45;0.57;;;11.30;99.90;;;;;;5038935;28;20037;-81
2022/10/01 10:21:55;;;;;;;3.22;1.33;;;11.20;99.90;;;;;;5017295;28;20037;-79
2022/10/01 10:24:26;;;;;;;3.40;0.95;;;;;;;;;;5041980;28;20116;-79
2022/10/01 10:26:55;;;;;;;1.60;0.70;;;11.40;99.90;;;;;;5042934;28;20056;-79
2022/10/01 10:29:30;;;;;;;0.88;0.38;;;11.30;99.90;;;;;;5041069;28;20120;-79
2022/10/01 10:31:57;;;;;;;0.57;0.38;;;11.20;99.90;;;;;;5040419;28;20025;-81
2022/10/01 10:34:37;;;;;;;1.55;0.90;;;;;;;;;;5050330;28;20043;-80
2022/10/01 10:37:06;;;;;;;1.10;0.50;;;11.50;99.90;;;;;;5044468;28;20037;-80
2022/10/01 10:39:38;;;;;;;2.17;0.70;;;11.80;99.90;;;;;;5039998;28;20029;-81
2022/10/01 10:42:05;;;;;;;0.68;0.47;;;12.10;99.90;;;;;;5046453;28;20029;-80
2022/10/01 10:44:35;;;;;;;1.98;0.65;;;11.50;99.90;;;;;;5038802;28;21088;-81
2022/10/01 10:47:04;;;;;;;4.78;1.40;;;11.40;99.90;;;;;;5042281;28;20025;-79
2022/10/01 10:49:31;;;;;;;7.82;1.77;;;;;;;;;;5040984;28;20040;-80
2022/10/01 10:51:59;;;;;;;2.55;0.90;;;;;;;;;;5036594;28;20032;-81
2022/10/01 10:54:36;;;;;;;1.63;0.90;;;11.90;99.90;;;;;;5040961;28;20104;-80
2022/10/01 10:57:22;;;;;;;2.08;1.40;;;11.70;99.90;;;;;;5043364;28;20080;-80
2022/10/01 11:00:17;;;;;;;2.10;0.90;;;11.50;99.90;;;;;;5044379;28;20025;-81
2022/10/01 11:03:05;;;;;;;1.10;0.55;;;11.80;99.90;;;;;;5043299;28;20090;-79
2022/10/01 11:05:38;;;;;;;1.70;0.60;;;11.40;99.90;;;;;;5042374;28;20032;-80
2022/10/01 11:08:07;;;;;;;1.77;1.10;;;11.90;99.90;;;;;;5035687;28;20036;-80
2022/10/01 11:10:54;;;;;;;1.85;0.70;;;12.60;99.90;;;;;;5042854;28;20029;-81
2022/10/01 11:13:33;;;;;;;0.80;0.43;;;;;;;;;;5033898;28;20113;-81
2022/10/01 11:16:21;;;;;;;1.63;0.28;;;11.60;99.90;;;;;;5047030;28;20063;-80
2022/10/01 11:19:18;;;;;;;0.77;0.55;;;12.10;99.90;;;;;;5044956;28;20029;-80
2022/10/01 11:22:37;;;;;;;1.05;0.45;;;12.10;99.90;;;;;;5036897;28;20025;-79
2022/10/01 11:25:42;;;;;;;1.60;0.70;;;11.50;99.90;;;;;;4987012;28;20109;-80
2022/10/01 11:28:27;;;;;;;1.33;0.63;;;12.40;99.90;;;;;;5042020;28;20037;-82
2022/10/01 11:31:25;;;;;;;0.85;0.40;;;11.70;99.90;;;;;;5045687;28;20056;-80
2022/10/01 11:33:51;;;;;;;1.13;0.70;;;;;;;;;;5037563;28;20056;-81
2022/10/01 11:36:42;;;;;;;0.70;0.30;;;12.20;99.90;;;;;;5039084;28;20041;-81
2022/10/01 11:39:15;;;;;;;0.88;0.50;;;12.60;99.90;;;;;;5046540;28;20083;-82
2022/10/01 11:41:53;;;;;;;0.57;0.40;;;12.20;99.90;;;;;;5043783;28;20529;-81
2022/10/01 11:44:42;;;;;;;1.70;0.75;;;12.30;99.90;;;;;;5046010;28;20049;-80
2022/10/01 11:47:14;;;;;;;1.02;0.50;;;12.90;99.90;;;;;;5042618;28;20070;-81
2022/10/01 11:49:55;;;;;;;0.60;0.35;;;12.60;99.90;;;;;;5045144;28;20036;-79
2022/10/01 11:52:42;;;;;;;1.20;0.30;;;12.60;99.90;;;;;;5041084;28;20037;-80
2022/10/01 12:01:25;;;;;;;1.38;0.30;;;13.10;99.90;;;;;;5037877;28;20032;-80
2022/10/01 12:03:51;;;;;;;0.75;0.20;;;;;;;;;;5034079;28;20576;-79
2022/10/01 12:06:21;;;;;;;0.75;0.20;;;13.00;99.90;;;;;;5041011;28;20171;-80
2022/10/01 12:08:53;;;;;;;0.88;0.30;;;12.30;99.90;;;;;;5045604;28;20762;-80
2022/10/01 12:11:35;;;;;;;0.25;0.15;;;12.20;99.90;;;;;;5047449;28;20029;-80
2022/10/01 12:14:08;;;;;;;0.30;0.20;;;12.60;99.90;;;;;;5041502;28;20036;-80
2022/10/01 12:16:45;;;;;;;0.65;0.30;;;13.20;99.90;;;;;;5042548;28;20022;-79
2022/10/01 12:19:34;;;;;;;0.30;0.20;;;13.10;99.90;;;;;;5041618;28;20123;-80
2022/10/01 12:22:20;;;;;;;0.85;0.30;;;13.00;99.90;;;;;;5048300;28;20029;-80
2022/10/01 12:24:46;;;;;;;0.25;0.20;;;12.50;99.90;;;;;;5043392;28;20579;-80
2022/10/01 12:27:48;;;;;;;2.28;0.30;;;13.00;99.90;;;;;;5043568;28;20032;-79
2022/10/01 12:30:28;;;;;;;1.15;0.20;;;12.30;99.90;;;;;;5028202;28;20038;-80
2022/10/01 12:33:03;;;;;;;2.38;0.55;;;12.20;99.90;;;;;;5040031;28;20492;-80
2022/10/01 12:35:56;;;;;;;1.48;0.43;;;13.00;99.90;;;;;;5047222;28;20040;-81
2022/10/01 12:39:06;;;;;;;0.40;0.20;;;12.30;99.90;;;;;;5045807;28;20120;-80
2022/10/01 12:42:05;;;;;;;2.25;0.28;;;12.60;99.90;;;;;;5038238;28;20077;-80
2022/10/01 12:44:32;;;;;;;1.98;0.63;;;;;;;;;;4991743;28;20061;-81
2022/10/01 12:47:07;;;;;;;0.10;0.10;;;;;;;;;;5040504;28;20021;-80
2022/10/01 12:49:35;;;;;;;0.30;0.10;;;12.30;99.90;;;;;;5045058;28;20068;-82
2022/10/01 12:52:23;;;;;;;0.40;0.20;;;12.70;99.90;;;;;;5043068;28;20021;-81
2022/10/01 12:55:12;;;;;;;3.10;0.30;;;12.00;99.90;;;;;;5039606;28;20037;-81
2022/10/01 12:57:49;;;;;;;0.88;0.22;;;13.00;99.90;;;;;;5046550;28;20021;-81
2022/10/01 13:00:24;;;;;;;0.10;0.10;;;12.30;99.90;;;;;;5037223;28;20037;-81
2022/10/01 13:02:55;;;;;;;0.32;0.30;;;12.50;99.90;;;;;;5036927;28;20149;-81
2022/10/01 13:05:29;;;;;;;0.77;0.20;;;13.00;99.90;;;;;;5039929;28;20025;-81
2022/10/01 13:08:24;;;;;;;1.85;0.35;;;;;;;;;;5033041;28;20029;-82
2022/10/01 13:11:06;;;;;;;0.57;0.10;;;12.00;99.90;;;;;;5035185;28;20040;-80
2022/10/01 13:13:33;;;;;;;0.50;0.40;;;;;;;;;;5035651;28;20044;-80
2022/10/01 13:16:12;;;;;;;1.30;0.50;;;;;;;;;;5029902;28;20037;-79
2022/10/01 13:18:49;;;;;;;0.52;0.28;;;12.60;99.90;;;;;;5039443;28;20191;-80
2022/10/01 13:21:24;;;;;;;2.03;0.28;;;13.00;99.90;;;;;;5035281;28;20399;-80
2022/10/01 13:23:53;;;;;;;1.65;0.85;;;11.60;99.90;;;;;;5031064;28;20053;-80
2022/10/01 13:26:27;;;;;;;3.17;0.32;;;;;;;;;;5027659;28;20032;-82
2022/10/01 13:29:20;;;;;;;0.28;0.20;;;12.10;99.90;;;;;;5035920;28;20038;-81
2022/10/01 13:31:55;;;;;;;1.92;0.28;;;;;;;;;;5043235;28;20134;-81
2022/10/01 13:34:38;;;;;;;1.27;0.57;;;11.80;99.90;;;;;;5031989;28;20052;-81
2022/10/01 13:37:18;;;;;;;3.20;0.85;;;;;;;;;;5040553;28;20029;-81
2022/10/01 13:39:45;;;;;;;1.02;0.40;;;12.80;99.90;;;;;;5034074;28;20785;-82
2022/10/01 13:42:27;;;;;;;0.85;0.43;;;12.20;99.90;;;;;;5038246;28;20662;-81
2022/10/01 13:44:58;;;;;;;2.53;0.70;;;;;;;;;;5041000;28;20041;-81
2022/10/01 13:47:24;;;;;;;1.27;0.57;;;;;;;;;;5049109;28;20417;-82
2022/10/01 13:50:05;;;;;;;0.47;0.32;;;12.50;99.90;;;;;;5036606;28;20029;-82
2022/10/01 13:52:31;;;;;;;0.75;0.55;;;13.80;99.90;;;;;;5039886;28;20029;-82
2022/10/01 13:54:58;;;;;;;1.08;0.30;;;;;;;;;;5040767;28;20516;-80
2022/10/01 13:57:37;;;;;;;0.50;0.30;;;12.40;99.90;;;;;;5041574;28;20072;-81
2022/10/01 14:00:03;;;;;;;0.38;0.28;;;;;;;;;;5044890;28;20076;-80
2022/10/01 14:02:34;;;;;;;2.63;0.60;;;13.20;99.90;;;;;;5048039;28;20013;-81
2022/10/01 14:05:23;;;;;;;0.65;0.25;;;12.70;99.90;;;;;;5039987;28;20104;-79
2022/10/01 14:07:55;;;;;;;5.35;0.25;;;12.30;99.90;;;;;;5051127;28;20570;-81
2022/10/01 14:10:22;;;;;;;0.75;0.30;;;;;;;;;;5041483;28;20026;-80
2022/10/01 14:18:23;;;;;;;0.85;0.60;;;;;;;;;;5051404;28;20040;-82
2022/10/01 14:21:19;;;;;;;1.02;0.40;;;13.90;99.90;;;;;;5040257;28;20037;-80
2022/10/01 14:23:57;;;;;;;0.60;0.32;;;;;;;;;;5038362;28;20025;-80
2022/10/01 14:26:46;;;;;;;1.85;0.73;;;13.60;99.90;;;;;;5046122;28;20100;-81
2022/10/01 14:29:33;;;;;;;1.08;0.50;;;13.90;99.90;;;;;;5061482;28;20128;-81
2022/10/01 14:32:13;;;;;;;0.93;0.55;;;13.80;99.90;;;;;;5060493;28;20025;-78